sensor_id;sensor_type;location;lat;lon;timestamp;temperature;humidity
40077;DHT22;25777;47.824;18.982;2023-04-03T00:01:04;6.60;99.90
40077;DHT22;25777;47.824;18.982;2023-04-03T00:03:32;6.70;99.90
40077;DHT22;25777;47.824;18.982;2023-04-03T00:05:58;6.60;99.90
40077;DHT22;25777;47.824;18.982;2023-04-03T00:08:26;6.60;99.90
40077;DHT22;25777;47.824;18.982;2023-04-03T00:10:52;6.40;99.90
40077;DHT22;25777;47.824;18.982;2023-04-03T00:13:19;6.40;99.90
40077;DHT22;25777;47.824;18.982;2023-04-03T00:15:45;6.50;99.90
40077;DHT22;25777;47.824;18.982;2023-04-03T00:18:13;6.50;99.90
40077;DHT22;25777;47.824;18.982;2023-04-03T00:20:40;6.50;99.90
40077;DHT22;25777;47.824;18.982;2023-04-03T00:23:08;6.60;99.90
40077;DHT22;25777;47.824;18.982;2023-04-03T00:25:37;6.70;99.90
40077;DHT22;25777;47.824;18.982;2023-04-03T00:28:04;6.70;99.90
40077;DHT22;25777;47.824;18.982;2023-04-03T00:30:31;6.70;99.90
40077;DHT22;25777;47.824;18.982;2023-04-03T00:32:57;6.60;99.90
40077;DHT22;25777;47.824;18.982;2023-04-03T00:35:24;6.60;99.90
40077;DHT22;25777;47.824;18.982;2023-04-03T00:37:51;6.60;99.90
40077;DHT22;25777;47.824;18.982;2023-04-03T00:40:19;6.60;99.90
40077;DHT22;25777;47.824;18.982;2023-04-03T00:42:47;6.60;99.90
40077;DHT22;25777;47.824;18.982;2023-04-03T00:45:38;6.60;99.90
40077;DHT22;25777;47.824;18.982;2023-04-03T00:48:08;6.60;99.90
40077;DHT22;25777;47.824;18.982;2023-04-03T00:50:38;6.60;99.90
40077;DHT22;25777;47.824;18.982;2023-04-03T00:53:06;6.60;99.90
40077;DHT22;25777;47.824;18.982;2023-04-03T00:55:35;6.60;99.90
40077;DHT22;25777;47.824;18.982;2023-04-03T00:58:03;6.60;99.90
40077;DHT22;25777;47.824;18.982;2023-04-03T01:00:31;6.60;99.90
40077;DHT22;25777;47.824;18.982;2023-04-03T01:02:57;6.60;99.90
40077;DHT22;25777;47.824;18.982;2023-04-03T01:05:23;6.60;99.90
40077;DHT22;25777;47.824;18.982;2023-04-03T01:07:50;6.60;99.90
40077;DHT22;25777;47.824;18.982;2023-04-03T01:10:18;6.60;99.80
40077;DHT22;25777;47.824;18.982;2023-04-03T01:12:49;6.60;99.90
40077;DHT22;25777;47.824;18.982;2023-04-03T01:15:22;6.50;99.90
40077;DHT22;25777;47.824;18.982;2023-04-03T01:17:54;6.40;98.50
40077;DHT22;25777;47.824;18.982;2023-04-03T01:28:24;6.30;99.90
40077;DHT22;25777;47.824;18.982;2023-04-03T01:33:43;6.20;99.80
40077;DHT22;25777;47.824;18.982;2023-04-03T01:36:15;6.00;99.60
40077;DHT22;25777;47.824;18.982;2023-04-03T01:38:44;5.90;99.50
40077;DHT22;25777;47.824;18.982;2023-04-03T01:41:19;5.90;99.90
40077;DHT22;25777;47.824;18.982;2023-04-03T01:43:47;5.90;99.90
40077;DHT22;25777;47.824;18.982;2023-04-03T01:46:14;5.80;99.10
40077;DHT22;25777;47.824;18.982;2023-04-03T01:48:41;5.80;99.90
40077;DHT22;25777;47.824;18.982;2023-04-03T01:51:07;5.90;99.90
40077;DHT22;25777;47.824;18.982;2023-04-03T01:53:34;5.90;99.90
40077;DHT22;25777;47.824;18.982;2023-04-03T01:56:05;5.80;98.90
40077;DHT22;25777;47.824;18.982;2023-04-03T01:58:31;5.80;99.90
40077;DHT22;25777;47.824;18.982;2023-04-03T02:00:57;5.80;99.90
40077;DHT22;25777;47.824;18.982;2023-04-03T02:03:26;5.80;99.90
40077;DHT22;25777;47.824;18.982;2023-04-03T02:06:01;5.80;99.90
40077;DHT22;25777;47.824;18.982;2023-04-03T02:08:27;5.90;99.80
40077;DHT22;25777;47.824;18.982;2023-04-03T02:10:57;6.00;99.90
40077;DHT22;25777;47.824;18.982;2023-04-03T02:13:25;5.90;99.90
40077;DHT22;25777;47.824;18.982;2023-04-03T02:15:51;6.00;99.90
40077;DHT22;25777;47.824;18.982;2023-04-03T02:18:17;6.00;99.90
40077;DHT22;25777;47.824;18.982;2023-04-03T02:20:46;5.90;99.90
40077;DHT22;25777;47.824;18.982;2023-04-03T02:23:13;5.80;99.90
40077;DHT22;25777;47.824;18.982;2023-04-03T02:25:41;5.90;99.90
40077;DHT22;25777;47.824;18.982;2023-04-03T02:28:08;5.90;99.90
40077;DHT22;25777;47.824;18.982;2023-04-03T02:30:33;6.00;99.90
40077;DHT22;25777;47.824;18.982;2023-04-03T02:33:00;5.90;99.90
40077;DHT22;25777;47.824;18.982;2023-04-03T02:35:32;5.90;99.80
40077;DHT22;25777;47.824;18.982;2023-04-03T02:38:01;5.80;99.90
40077;DHT22;25777;47.824;18.982;2023-04-03T02:40:27;5.80;99.90
40077;DHT22;25777;47.824;18.982;2023-04-03T02:42:53;5.90;99.90
40077;DHT22;25777;47.824;18.982;2023-04-03T02:45:23;5.70;99.90
40077;DHT22;25777;47.824;18.982;2023-04-03T02:47:50;5.60;99.90
40077;DHT22;25777;47.824;18.982;2023-04-03T02:50:17;5.50;99.70
40077;DHT22;25777;47.824;18.982;2023-04-03T02:52:44;5.60;99.90
40077;DHT22;25777;47.824;18.982;2023-04-03T02:55:14;5.60;99.90
40077;DHT22;25777;47.824;18.982;2023-04-03T02:57:42;5.50;99.90
40077;DHT22;25777;47.824;18.982;2023-04-03T03:00:08;5.50;99.90
40077;DHT22;25777;47.824;18.982;2023-04-03T03:02:38;5.50;99.90
40077;DHT22;25777;47.824;18.982;2023-04-03T03:05:04;5.40;99.90
40077;DHT22;25777;47.824;18.982;2023-04-03T03:07:31;5.20;99.90
40077;DHT22;25777;47.824;18.982;2023-04-03T03:09:57;5.30;99.90
40077;DHT22;25777;47.824;18.982;2023-04-03T03:12:24;5.30;99.90
40077;DHT22;25777;47.824;18.982;2023-04-03T03:14:52;5.30;99.90
40077;DHT22;25777;47.824;18.982;2023-04-03T03:17:18;5.20;99.90
40077;DHT22;25777;47.824;18.982;2023-04-03T03:19:44;5.20;99.90
40077;DHT22;25777;47.824;18.982;2023-04-03T03:22:12;5.20;99.90
40077;DHT22;25777;47.824;18.982;2023-04-03T03:24:38;5.20;99.90
40077;DHT22;25777;47.824;18.982;2023-04-03T03:27:06;5.10;99.90
40077;DHT22;25777;47.824;18.982;2023-04-03T03:29:36;5.00;99.90
40077;DHT22;25777;47.824;18.982;2023-04-03T03:32:06;4.90;99.90
40077;DHT22;25777;47.824;18.982;2023-04-03T03:34:33;4.80;99.90
40077;DHT22;25777;47.824;18.982;2023-04-03T03:37:00;4.80;99.90
40077;DHT22;25777;47.824;18.982;2023-04-03T03:39:26;4.90;99.90
40077;DHT22;25777;47.824;18.982;2023-04-03T03:41:52;5.00;99.90
40077;DHT22;25777;47.824;18.982;2023-04-03T03:44:31;4.90;99.90
40077;DHT22;25777;47.824;18.982;2023-04-03T03:46:59;5.00;99.90
40077;DHT22;25777;47.824;18.982;2023-04-03T03:49:25;4.80;99.90
40077;DHT22;25777;47.824;18.982;2023-04-03T03:51:51;4.80;99.90
40077;DHT22;25777;47.824;18.982;2023-04-03T03:54:19;4.60;99.90
40077;DHT22;25777;47.824;18.982;2023-04-03T03:56:46;4.60;99.90
40077;DHT22;25777;47.824;18.982;2023-04-03T03:59:12;4.70;99.90
40077;DHT22;25777;47.824;18.982;2023-04-03T04:01:38;4.70;99.90
40077;DHT22;25777;47.824;18.982;2023-04-03T04:04:05;4.60;99.90
40077;DHT22;25777;47.824;18.982;2023-04-03T04:06:32;4.50;99.90
40077;DHT22;25777;47.824;18.982;2023-04-03T04:08:59;4.30;99.90
40077;DHT22;25777;47.824;18.982;2023-04-03T04:11:25;4.40;99.90
40077;DHT22;25777;47.824;18.982;2023-04-03T04:13:52;4.40;99.90
40077;DHT22;25777;47.824;18.982;2023-04-03T04:16:18;4.40;99.90
40077;DHT22;25777;47.824;18.982;2023-04-03T04:18:46;4.30;99.90
40077;DHT22;25777;47.824;18.982;2023-04-03T04:21:13;4.30;99.90
40077;DHT22;25777;47.824;18.982;2023-04-03T04:23:39;4.20;99.90
40077;DHT22;25777;47.824;18.982;2023-04-03T04:26:05;4.30;99.90
40077;DHT22;25777;47.824;18.982;2023-04-03T04:28:31;4.20;99.90
40077;DHT22;25777;47.824;18.982;2023-04-03T04:30:57;4.20;99.90
40077;DHT22;25777;47.824;18.982;2023-04-03T04:33:23;4.10;99.90
40077;DHT22;25777;47.824;18.982;2023-04-03T04:35:49;4.10;99.90
40077;DHT22;25777;47.824;18.982;2023-04-03T04:38:15;3.90;99.90
40077;DHT22;25777;47.824;18.982;2023-04-03T04:40:43;3.90;99.90
40077;DHT22;25777;47.824;18.982;2023-04-03T04:43:10;3.90;99.90
40077;DHT22;25777;47.824;18.982;2023-04-03T04:45:46;3.80;99.90
40077;DHT22;25777;47.824;18.982;2023-04-03T04:48:12;3.80;99.90
40077;DHT22;25777;47.824;18.982;2023-04-03T04:50:38;3.80;99.90
40077;DHT22;25777;47.824;18.982;2023-04-03T04:53:04;3.80;99.90
40077;DHT22;25777;47.824;18.982;2023-04-03T04:55:31;3.80;99.90
40077;DHT22;25777;47.824;18.982;2023-04-03T04:57:57;3.80;99.90
40077;DHT22;25777;47.824;18.982;2023-04-03T05:00:23;3.80;99.90
40077;DHT22;25777;47.824;18.982;2023-04-03T05:02:49;3.60;99.90
40077;DHT22;25777;47.824;18.982;2023-04-03T05:05:16;3.40;99.90
40077;DHT22;25777;47.824;18.982;2023-04-03T05:07:44;3.50;99.90
40077;DHT22;25777;47.824;18.982;2023-04-03T05:10:11;3.50;99.90
40077;DHT22;25777;47.824;18.982;2023-04-03T05:12:38;3.60;99.90
40077;DHT22;25777;47.824;18.982;2023-04-03T05:15:04;3.40;99.90
40077;DHT22;25777;47.824;18.982;2023-04-03T05:17:37;3.40;99.90
40077;DHT22;25777;47.824;18.982;2023-04-03T05:20:04;3.40;99.90
40077;DHT22;25777;47.824;18.982;2023-04-03T05:22:31;3.40;99.90
40077;DHT22;25777;47.824;18.982;2023-04-03T05:24:58;3.50;99.90
40077;DHT22;25777;47.824;18.982;2023-04-03T05:27:24;3.40;99.90
40077;DHT22;25777;47.824;18.982;2023-04-03T05:29:52;3.40;99.90
40077;DHT22;25777;47.824;18.982;2023-04-03T05:32:18;3.40;99.90
40077;DHT22;25777;47.824;18.982;2023-04-03T05:34:44;3.50;99.90
40077;DHT22;25777;47.824;18.982;2023-04-03T05:37:11;3.40;99.90
40077;DHT22;25777;47.824;18.982;2023-04-03T05:39:37;3.50;99.90
40077;DHT22;25777;47.824;18.982;2023-04-03T05:42:08;3.60;99.90
40077;DHT22;25777;47.824;18.982;2023-04-03T05:44:34;3.70;99.90
40077;DHT22;25777;47.824;18.982;2023-04-03T05:47:00;3.60;99.90
40077;DHT22;25777;47.824;18.982;2023-04-03T05:49:27;3.50;99.90
40077;DHT22;25777;47.824;18.982;2023-04-03T05:51:53;3.70;99.90
40077;DHT22;25777;47.824;18.982;2023-04-03T05:54:29;3.80;99.90
40077;DHT22;25777;47.824;18.982;2023-04-03T05:56:55;3.90;99.90
40077;DHT22;25777;47.824;18.982;2023-04-03T05:59:23;4.10;99.90
40077;DHT22;25777;47.824;18.982;2023-04-03T06:01:49;4.20;99.90
40077;DHT22;25777;47.824;18.982;2023-04-03T06:04:15;4.40;99.90
40077;DHT22;25777;47.824;18.982;2023-04-03T06:06:53;4.40;99.90
40077;DHT22;25777;47.824;18.982;2023-04-03T06:09:21;4.60;99.90
40077;DHT22;25777;47.824;18.982;2023-04-03T06:11:48;4.80;99.90
40077;DHT22;25777;47.824;18.982;2023-04-03T06:14:13;4.80;99.90
40077;DHT22;25777;47.824;18.982;2023-04-03T06:16:40;4.80;99.90
40077;DHT22;25777;47.824;18.982;2023-04-03T06:19:08;4.90;99.90
40077;DHT22;25777;47.824;18.982;2023-04-03T06:21:35;5.20;99.90
40077;DHT22;25777;47.824;18.982;2023-04-03T06:24:03;5.30;99.90
40077;DHT22;25777;47.824;18.982;2023-04-03T06:26:29;5.50;99.90
40077;DHT22;25777;47.824;18.982;2023-04-03T06:28:54;5.60;99.90
40077;DHT22;25777;47.824;18.982;2023-04-03T06:31:21;5.70;99.90
40077;DHT22;25777;47.824;18.982;2023-04-03T06:33:47;5.80;99.90
40077;DHT22;25777;47.824;18.982;2023-04-03T06:36:13;6.00;99.90
40077;DHT22;25777;47.824;18.982;2023-04-03T06:38:40;6.10;99.90
40077;DHT22;25777;47.824;18.982;2023-04-03T06:41:06;6.20;99.90
40077;DHT22;25777;47.824;18.982;2023-04-03T06:43:32;6.30;99.40
40077;DHT22;25777;47.824;18.982;2023-04-03T06:45:58;6.50;99.70
40077;DHT22;25777;47.824;18.982;2023-04-03T06:48:24;6.20;95.90
40077;DHT22;25777;47.824;18.982;2023-04-03T06:50:54;6.20;97.30
40077;DHT22;25777;47.824;18.982;2023-04-03T06:53:23;6.40;96.00
40077;DHT22;25777;47.824;18.982;2023-04-03T06:55:49;6.80;97.20
40077;DHT22;25777;47.824;18.982;2023-04-03T06:58:15;6.80;94.80
40077;DHT22;25777;47.824;18.982;2023-04-03T07:00:43;6.70;94.90
40077;DHT22;25777;47.824;18.982;2023-04-03T07:03:08;6.70;93.60
40077;DHT22;25777;47.824;18.982;2023-04-03T07:05:34;6.70;92.80
40077;DHT22;25777;47.824;18.982;2023-04-03T07:08:01;6.80;93.60
40077;DHT22;25777;47.824;18.982;2023-04-03T07:10:28;6.70;93.60
40077;DHT22;25777;47.824;18.982;2023-04-03T07:12:55;6.80;94.10
40077;DHT22;25777;47.824;18.982;2023-04-03T07:15:21;7.00;94.80
40077;DHT22;25777;47.824;18.982;2023-04-03T07:17:47;7.30;95.20
40077;DHT22;25777;47.824;18.982;2023-04-03T07:20:28;7.20;94.50
40077;DHT22;25777;47.824;18.982;2023-04-03T07:22:57;7.30;97.30
40077;DHT22;25777;47.824;18.982;2023-04-03T07:25:29;7.30;95.10
40077;DHT22;25777;47.824;18.982;2023-04-03T07:28:00;7.50;95.60
40077;DHT22;25777;47.824;18.982;2023-04-03T07:30:27;7.50;94.60
40077;DHT22;25777;47.824;18.982;2023-04-03T07:32:57;7.60;93.20
40077;DHT22;25777;47.824;18.982;2023-04-03T07:35:39;7.90;93.90
40077;DHT22;25777;47.824;18.982;2023-04-03T07:38:05;8.10;93.10
40077;DHT22;25777;47.824;18.982;2023-04-03T07:40:33;8.30;93.70
40077;DHT22;25777;47.824;18.982;2023-04-03T07:43:31;8.40;94.00
40077;DHT22;25777;47.824;18.982;2023-04-03T07:45:58;8.60;91.80
40077;DHT22;25777;47.824;18.982;2023-04-03T07:48:26;9.00;90.90
40077;DHT22;25777;47.824;18.982;2023-04-03T07:50:52;9.20;90.30
40077;DHT22;25777;47.824;18.982;2023-04-03T07:53:21;9.20;90.10
40077;DHT22;25777;47.824;18.982;2023-04-03T07:55:48;8.60;88.80
40077;DHT22;25777;47.824;18.982;2023-04-03T07:58:18;9.10;90.00
40077;DHT22;25777;47.824;18.982;2023-04-03T08:00:46;9.10;90.20
40077;DHT22;25777;47.824;18.982;2023-04-03T08:03:18;9.20;85.30
40077;DHT22;25777;47.824;18.982;2023-04-03T08:05:46;9.70;89.00
40077;DHT22;25777;47.824;18.982;2023-04-03T08:08:19;9.90;84.60
40077;DHT22;25777;47.824;18.982;2023-04-03T08:10:52;9.80;77.70
40077;DHT22;25777;47.824;18.982;2023-04-03T08:13:19;9.50;74.10
40077;DHT22;25777;47.824;18.982;2023-04-03T08:15:46;10.00;80.90
40077;DHT22;25777;47.824;18.982;2023-04-03T08:18:15;10.60;81.00
40077;DHT22;25777;47.824;18.982;2023-04-03T08:20:42;10.80;80.20
40077;DHT22;25777;47.824;18.982;2023-04-03T08:23:09;10.90;82.00
40077;DHT22;25777;47.824;18.982;2023-04-03T08:25:40;10.60;71.90
40077;DHT22;25777;47.824;18.982;2023-04-03T08:28:10;11.10;75.00
40077;DHT22;25777;47.824;18.982;2023-04-03T08:30:41;11.20;69.70
40077;DHT22;25777;47.824;18.982;2023-04-03T08:33:08;11.20;67.70
40077;DHT22;25777;47.824;18.982;2023-04-03T08:35:42;11.60;69.40
40077;DHT22;25777;47.824;18.982;2023-04-03T08:38:09;11.00;61.60
40077;DHT22;25777;47.824;18.982;2023-04-03T08:40:43;11.00;64.90
40077;DHT22;25777;47.824;18.982;2023-04-03T08:43:38;11.30;61.80
40077;DHT22;25777;47.824;18.982;2023-04-03T08:46:13;11.50;65.20
40077;DHT22;25777;47.824;18.982;2023-04-03T08:48:43;11.60;64.80
40077;DHT22;25777;47.824;18.982;2023-04-03T08:51:18;11.10;65.80
40077;DHT22;25777;47.824;18.982;2023-04-03T08:54:12;10.80;62.80
40077;DHT22;25777;47.824;18.982;2023-04-03T08:56:43;10.70;60.30
40077;DHT22;25777;47.824;18.982;2023-04-03T08:59:37;11.40;64.10
40077;DHT22;25777;47.824;18.982;2023-04-03T09:08:31;10.80;58.80
40077;DHT22;25777;47.824;18.982;2023-04-03T09:20:21;10.50;61.80
40077;DHT22;25777;47.824;18.982;2023-04-03T09:23:04;10.60;64.30
40077;DHT22;25777;47.824;18.982;2023-04-03T09:25:34;10.60;59.60
40077;DHT22;25777;47.824;18.982;2023-04-03T09:28:03;10.80;64.70
40077;DHT22;25777;47.824;18.982;2023-04-03T09:30:44;10.80;61.20
40077;DHT22;25777;47.824;18.982;2023-04-03T09:33:10;10.70;58.90
40077;DHT22;25777;47.824;18.982;2023-04-03T09:35:41;11.10;57.90
40077;DHT22;25777;47.824;18.982;2023-04-03T09:40:40;11.50;64.70
40077;DHT22;25777;47.824;18.982;2023-04-03T09:46:31;12.00;58.50
40077;DHT22;25777;47.824;18.982;2023-04-03T09:49:02;11.90;59.20
40077;DHT22;25777;47.824;18.982;2023-04-03T09:51:31;11.40;56.80
40077;DHT22;25777;47.824;18.982;2023-04-03T09:53:59;11.20;60.90
40077;DHT22;25777;47.824;18.982;2023-04-03T09:56:28;11.10;58.50
40077;DHT22;25777;47.824;18.982;2023-04-03T09:59:14;11.20;59.70
40077;DHT22;25777;47.824;18.982;2023-04-03T10:02:00;11.00;61.10
40077;DHT22;25777;47.824;18.982;2023-04-03T10:04:45;11.00;64.30
40077;DHT22;25777;47.824;18.982;2023-04-03T10:07:37;10.60;59.00
40077;DHT22;25777;47.824;18.982;2023-04-03T10:10:29;10.50;55.40
40077;DHT22;25777;47.824;18.982;2023-04-03T10:13:16;10.50;56.20
40077;DHT22;25777;47.824;18.982;2023-04-03T10:28:04;10.80;61.60
40077;DHT22;25777;47.824;18.982;2023-04-03T10:31:13;10.90;60.20
40077;DHT22;25777;47.824;18.982;2023-04-03T10:39:08;10.70;59.70
40077;DHT22;25777;47.824;18.982;2023-04-03T10:42:23;10.60;58.50
40077;DHT22;25777;47.824;18.982;2023-04-03T10:47:49;10.50;64.20
40077;DHT22;25777;47.824;18.982;2023-04-03T10:50:43;10.40;62.90
40077;DHT22;25777;47.824;18.982;2023-04-03T10:58:36;10.40;60.60
40077;DHT22;25777;47.824;18.982;2023-04-03T11:01:18;10.30;61.00
40077;DHT22;25777;47.824;18.982;2023-04-03T11:03:49;10.40;59.30
40077;DHT22;25777;47.824;18.982;2023-04-03T11:06:19;10.50;60.90
40077;DHT22;25777;47.824;18.982;2023-04-03T11:08:58;10.50;60.30
40077;DHT22;25777;47.824;18.982;2023-04-03T11:11:36;10.40;61.40
40077;DHT22;25777;47.824;18.982;2023-04-03T11:14:21;10.30;60.30
40077;DHT22;25777;47.824;18.982;2023-04-03T11:17:08;10.30;62.50
40077;DHT22;25777;47.824;18.982;2023-04-03T11:19:45;10.20;64.30
40077;DHT22;25777;47.824;18.982;2023-04-03T11:25:09;10.20;62.10
40077;DHT22;25777;47.824;18.982;2023-04-03T11:28:09;10.30;59.50
40077;DHT22;25777;47.824;18.982;2023-04-03T11:33:47;10.40;60.60
40077;DHT22;25777;47.824;18.982;2023-04-03T11:36:44;10.50;65.50
40077;DHT22;25777;47.824;18.982;2023-04-03T11:39:32;10.60;62.40
40077;DHT22;25777;47.824;18.982;2023-04-03T11:53:43;10.40;60.20
40077;DHT22;25777;47.824;18.982;2023-04-03T12:04:22;10.50;62.30
40077;DHT22;25777;47.824;18.982;2023-04-03T12:07:00;10.60;62.40
40077;DHT22;25777;47.824;18.982;2023-04-03T12:09:29;10.60;60.60
40077;DHT22;25777;47.824;18.982;2023-04-03T12:12:21;10.70;63.00
40077;DHT22;25777;47.824;18.982;2023-04-03T12:14:51;10.80;61.50
40077;DHT22;25777;47.824;18.982;2023-04-03T12:17:27;10.70;62.60
40077;DHT22;25777;47.824;18.982;2023-04-03T12:19:57;10.50;59.60
40077;DHT22;25777;47.824;18.982;2023-04-03T12:22:26;10.40;61.90
40077;DHT22;25777;47.824;18.982;2023-04-03T12:24:52;10.50;62.80
40077;DHT22;25777;47.824;18.982;2023-04-03T12:27:30;10.50;62.40
40077;DHT22;25777;47.824;18.982;2023-04-03T12:33:05;10.30;63.70
40077;DHT22;25777;47.824;18.982;2023-04-03T12:35:46;10.40;61.70
40077;DHT22;25777;47.824;18.982;2023-04-03T12:47:29;10.70;62.70
40077;DHT22;25777;47.824;18.982;2023-04-03T12:49:59;10.70;60.80
40077;DHT22;25777;47.824;18.982;2023-04-03T12:52:44;10.70;63.10
40077;DHT22;25777;47.824;18.982;2023-04-03T12:55:20;10.50;61.40
40077;DHT22;25777;47.824;18.982;2023-04-03T12:57:56;10.70;65.30
40077;DHT22;25777;47.824;18.982;2023-04-03T13:00:35;10.70;59.80
40077;DHT22;25777;47.824;18.982;2023-04-03T13:03:13;10.70;63.50
40077;DHT22;25777;47.824;18.982;2023-04-03T13:05:46;10.60;63.50
40077;DHT22;25777;47.824;18.982;2023-04-03T13:08:15;10.50;61.30
40077;DHT22;25777;47.824;18.982;2023-04-03T13:10:58;10.50;61.90
40077;DHT22;25777;47.824;18.982;2023-04-03T13:13:29;10.60;61.80
40077;DHT22;25777;47.824;18.982;2023-04-03T13:16:09;10.50;62.80
40077;DHT22;25777;47.824;18.982;2023-04-03T13:18:42;10.50;61.30
40077;DHT22;25777;47.824;18.982;2023-04-03T13:21:27;10.40;61.10
40077;DHT22;25777;47.824;18.982;2023-04-03T13:23:57;10.40;63.50
40077;DHT22;25777;47.824;18.982;2023-04-03T13:26:32;10.40;63.40
40077;DHT22;25777;47.824;18.982;2023-04-03T13:29:07;10.40;60.10
40077;DHT22;25777;47.824;18.982;2023-04-03T13:31:36;10.40;63.30
40077;DHT22;25777;47.824;18.982;2023-04-03T13:37:11;10.40;63.50
40077;DHT22;25777;47.824;18.982;2023-04-03T13:39:44;10.30;60.80
40077;DHT22;25777;47.824;18.982;2023-04-03T13:42:26;10.40;65.00
40077;DHT22;25777;47.824;18.982;2023-04-03T13:45:28;10.50;67.60
40077;DHT22;25777;47.824;18.982;2023-04-03T13:48:17;10.50;63.90
40077;DHT22;25777;47.824;18.982;2023-04-03T13:53:19;10.60;68.60
40077;DHT22;25777;47.824;18.982;2023-04-03T13:56:16;10.60;64.20
40077;DHT22;25777;47.824;18.982;2023-04-03T13:58:54;10.60;63.20
40077;DHT22;25777;47.824;18.982;2023-04-03T14:01:23;10.50;63.90
40077;DHT22;25777;47.824;18.982;2023-04-03T14:04:00;10.50;63.20
40077;DHT22;25777;47.824;18.982;2023-04-03T14:06:29;10.40;60.60
40077;DHT22;25777;47.824;18.982;2023-04-03T14:08:56;10.40;64.90
40077;DHT22;25777;47.824;18.982;2023-04-03T14:11:28;10.40;63.90
40077;DHT22;25777;47.824;18.982;2023-04-03T14:14:00;10.40;64.40
40077;DHT22;25777;47.824;18.982;2023-04-03T14:16:41;10.20;63.30
40077;DHT22;25777;47.824;18.982;2023-04-03T14:19:20;10.20;63.00
40077;DHT22;25777;47.824;18.982;2023-04-03T14:21:54;10.10;64.80
40077;DHT22;25777;47.824;18.982;2023-04-03T14:24:21;10.10;65.20
40077;DHT22;25777;47.824;18.982;2023-04-03T14:26:51;10.00;65.20
40077;DHT22;25777;47.824;18.982;2023-04-03T14:29:21;10.00;66.60
40077;DHT22;25777;47.824;18.982;2023-04-03T14:31:49;10.00;67.90
40077;DHT22;25777;47.824;18.982;2023-04-03T14:34:15;10.00;67.60
40077;DHT22;25777;47.824;18.982;2023-04-03T14:36:43;9.90;67.00
40077;DHT22;25777;47.824;18.982;2023-04-03T14:39:18;9.90;66.10
40077;DHT22;25777;47.824;18.982;2023-04-03T14:41:50;9.80;67.50
40077;DHT22;25777;47.824;18.982;2023-04-03T14:44:16;9.80;67.70
40077;DHT22;25777;47.824;18.982;2023-04-03T14:46:49;9.80;69.60
40077;DHT22;25777;47.824;18.982;2023-04-03T14:49:20;9.80;71.00
40077;DHT22;25777;47.824;18.982;2023-04-03T14:51:47;9.80;70.60
40077;DHT22;25777;47.824;18.982;2023-04-03T14:54:17;9.70;69.20
40077;DHT22;25777;47.824;18.982;2023-04-03T14:56:45;9.60;69.50
40077;DHT22;25777;47.824;18.982;2023-04-03T14:59:13;9.60;71.40
40077;DHT22;25777;47.824;18.982;2023-04-03T15:01:40;9.60;73.40
40077;DHT22;25777;47.824;18.982;2023-04-03T15:04:13;9.60;72.60
40077;DHT22;25777;47.824;18.982;2023-04-03T15:06:44;9.60;72.40
40077;DHT22;25777;47.824;18.982;2023-04-03T15:09:26;9.60;73.40
40077;DHT22;25777;47.824;18.982;2023-04-03T15:11:54;9.60;73.10
40077;DHT22;25777;47.824;18.982;2023-04-03T15:14:22;9.60;74.00
40077;DHT22;25777;47.824;18.982;2023-04-03T15:16:51;9.60;73.50
40077;DHT22;25777;47.824;18.982;2023-04-03T15:19:17;9.60;70.40
40077;DHT22;25777;47.824;18.982;2023-04-03T15:21:45;9.60;74.00
40077;DHT22;25777;47.824;18.982;2023-04-03T15:24:12;9.50;75.50
40077;DHT22;25777;47.824;18.982;2023-04-03T15:26:45;9.50;71.80
40077;DHT22;25777;47.824;18.982;2023-04-03T15:29:12;9.50;70.30
40077;DHT22;25777;47.824;18.982;2023-04-03T15:31:41;9.40;71.10
40077;DHT22;25777;47.824;18.982;2023-04-03T15:34:07;9.30;67.30
40077;DHT22;25777;47.824;18.982;2023-04-03T15:36:33;9.20;66.70
40077;DHT22;25777;47.824;18.982;2023-04-03T15:38:59;9.00;67.20
40077;DHT22;25777;47.824;18.982;2023-04-03T15:41:25;8.80;64.60
40077;DHT22;25777;47.824;18.982;2023-04-03T15:43:59;8.70;62.70
40077;DHT22;25777;47.824;18.982;2023-04-03T15:46:27;8.60;64.70
40077;DHT22;25777;47.824;18.982;2023-04-03T15:48:58;8.50;64.20
40077;DHT22;25777;47.824;18.982;2023-04-03T15:51:24;8.40;66.90
40077;DHT22;25777;47.824;18.982;2023-04-03T15:53:51;8.30;63.90
40077;DHT22;25777;47.824;18.982;2023-04-03T15:56:19;8.30;64.00
40077;DHT22;25777;47.824;18.982;2023-04-03T15:58:48;8.20;64.10
40077;DHT22;25777;47.824;18.982;2023-04-03T16:01:15;8.10;67.10
40077;DHT22;25777;47.824;18.982;2023-04-03T16:03:43;8.20;65.60
40077;DHT22;25777;47.824;18.982;2023-04-03T16:06:16;8.20;66.10
40077;DHT22;25777;47.824;18.982;2023-04-03T16:08:44;8.20;66.90
40077;DHT22;25777;47.824;18.982;2023-04-03T16:11:12;8.10;69.10
40077;DHT22;25777;47.824;18.982;2023-04-03T16:13:43;8.10;67.20
40077;DHT22;25777;47.824;18.982;2023-04-03T16:16:13;8.00;65.50
40077;DHT22;25777;47.824;18.982;2023-04-03T16:18:47;8.00;68.20
40077;DHT22;25777;47.824;18.982;2023-04-03T16:21:17;8.00;65.60
40077;DHT22;25777;47.824;18.982;2023-04-03T16:23:50;7.90;64.30
40077;DHT22;25777;47.824;18.982;2023-04-03T16:26:17;7.90;65.50
40077;DHT22;25777;47.824;18.982;2023-04-03T16:28:44;7.80;64.90
40077;DHT22;25777;47.824;18.982;2023-04-03T16:31:11;7.70;65.30
40077;DHT22;25777;47.824;18.982;2023-04-03T16:33:43;7.70;65.00
40077;DHT22;25777;47.824;18.982;2023-04-03T16:36:09;7.70;66.50
40077;DHT22;25777;47.824;18.982;2023-04-03T16:38:37;7.70;67.40
40077;DHT22;25777;47.824;18.982;2023-04-03T16:41:03;7.60;67.20
40077;DHT22;25777;47.824;18.982;2023-04-03T16:43:31;7.60;67.10
40077;DHT22;25777;47.824;18.982;2023-04-03T16:45:58;7.60;65.10
40077;DHT22;25777;47.824;18.982;2023-04-03T16:48:29;7.60;66.70
40077;DHT22;25777;47.824;18.982;2023-04-03T16:50:56;7.60;68.10
40077;DHT22;25777;47.824;18.982;2023-04-03T16:53:23;7.50;68.60
40077;DHT22;25777;47.824;18.982;2023-04-03T16:55:50;7.40;66.60
40077;DHT22;25777;47.824;18.982;2023-04-03T16:58:19;7.40;66.70
40077;DHT22;25777;47.824;18.982;2023-04-03T17:00:46;7.40;67.40
40077;DHT22;25777;47.824;18.982;2023-04-03T17:03:13;7.40;68.70
40077;DHT22;25777;47.824;18.982;2023-04-03T17:05:40;7.30;67.30
40077;DHT22;25777;47.824;18.982;2023-04-03T17:08:06;7.30;67.60
40077;DHT22;25777;47.824;18.982;2023-04-03T17:10:32;7.30;67.60
40077;DHT22;25777;47.824;18.982;2023-04-03T17:13:03;7.20;67.80
40077;DHT22;25777;47.824;18.982;2023-04-03T17:15:33;7.20;68.40
40077;DHT22;25777;47.824;18.982;2023-04-03T17:17:59;7.20;69.00
40077;DHT22;25777;47.824;18.982;2023-04-03T17:20:29;7.30;68.60
40077;DHT22;25777;47.824;18.982;2023-04-03T17:22:57;7.20;73.10
40077;DHT22;25777;47.824;18.982;2023-04-03T17:25:27;7.10;67.00
40077;DHT22;25777;47.824;18.982;2023-04-03T17:27:57;7.20;69.50
40077;DHT22;25777;47.824;18.982;2023-04-03T17:30:23;7.20;71.20